createdAt,value
2018-08-23T00:02:16.233Z,10.70
2018-08-23T00:04:44.188Z,10.97
2018-08-23T00:07:15.031Z,10.87
2018-08-23T00:09:43.026Z,11.07
2018-08-23T00:12:10.972Z,11.10
2018-08-23T00:14:38.925Z,12.30
2018-08-23T00:17:06.902Z,11.37
2018-08-23T00:19:34.859Z,11.60
2018-08-23T00:22:04.444Z,12.53
2018-08-23T00:24:32.452Z,12.43
2018-08-23T00:27:00.411Z,13.03
2018-08-23T00:29:30.598Z,11.90
2018-08-23T00:32:06.387Z,12.07
2018-08-23T00:34:36.633Z,13.03
2018-08-23T00:37:05.207Z,12.90
2018-08-23T00:39:34.101Z,13.07
2018-08-23T00:42:04.779Z,13.80
2018-08-23T00:44:48.502Z,14.23
2018-08-23T00:47:16.475Z,14.30
2018-08-23T00:49:44.436Z,16.17
2018-08-23T00:52:12.485Z,15.30
2018-08-23T00:54:40.422Z,15.90
2018-08-23T00:57:08.393Z,15.20
2018-08-23T00:59:36.358Z,15.90
2018-08-23T01:02:07.665Z,16.60
2018-08-23T01:04:39.124Z,16.47
2018-08-23T01:07:07.200Z,16.63
2018-08-23T01:09:37.323Z,17.57
2018-08-23T01:12:05.529Z,17.33
2018-08-23T01:14:34.108Z,17.30
2018-08-23T01:17:12.861Z,17.70
2018-08-23T01:19:46.793Z,18.85
2018-08-23T01:22:14.909Z,17.70
2018-08-23T01:24:46.405Z,20.30
2018-08-23T01:27:21.560Z,19.17
2018-08-23T01:29:49.508Z,18.77
2018-08-23T01:32:22.983Z,20.17
2018-08-23T01:34:50.960Z,19.10
2018-08-23T01:37:34.469Z,21.53
2018-08-23T01:40:03.363Z,21.47
2018-08-23T01:42:33.097Z,20.80
2018-08-23T01:45:02.124Z,20.90
2018-08-23T01:47:37.972Z,20.53
2018-08-23T01:50:06.263Z,23.00
2018-08-23T01:52:38.455Z,22.50
2018-08-23T01:55:06.447Z,22.40
2018-08-23T01:57:35.520Z,23.53
2018-08-23T02:00:04.039Z,24.90
2018-08-23T02:02:31.972Z,25.27
2018-08-23T02:04:59.921Z,24.80
2018-08-23T02:07:28.064Z,26.50
2018-08-23T02:09:56.148Z,27.30
2018-08-23T02:12:24.867Z,26.23
2018-08-23T02:14:58.485Z,28.73
2018-08-23T02:17:26.546Z,28.27
2018-08-23T02:19:54.615Z,29.60
2018-08-23T02:22:22.707Z,28.40
2018-08-23T02:24:50.740Z,29.07
2018-08-23T02:27:19.849Z,29.80
2018-08-23T02:29:48.445Z,28.70
2018-08-23T02:32:16.410Z,30.37
2018-08-23T02:34:45.598Z,30.27
2018-08-23T02:37:14.694Z,30.40
2018-08-23T02:39:43.397Z,30.40
2018-08-23T02:42:12.305Z,31.33
2018-08-23T02:44:40.505Z,32.27
2018-08-23T02:47:08.588Z,31.67
2018-08-23T02:49:36.620Z,31.90
2018-08-23T02:52:04.965Z,33.37
2018-08-23T02:54:33.149Z,32.47
2018-08-23T02:57:01.619Z,34.40
2018-08-23T02:59:30.555Z,32.20
2018-08-23T03:01:58.491Z,33.13
2018-08-23T03:04:27.605Z,33.20
2018-08-23T03:07:02.508Z,33.37
2018-08-23T03:09:35.867Z,34.20
2018-08-23T03:12:11.203Z,34.10
2018-08-23T03:14:39.895Z,34.47
2018-08-23T03:17:25.103Z,36.33
2018-08-23T03:20:06.898Z,35.33
2018-08-23T03:22:35.311Z,36.27
2018-08-23T03:25:04.777Z,35.20
2018-08-23T03:27:33.123Z,37.60
2018-08-23T03:30:02.167Z,38.00
2018-08-23T03:32:30.531Z,37.73
2018-08-23T03:34:59.113Z,38.00
2018-08-23T03:37:27.195Z,37.67
2018-08-23T03:39:55.376Z,39.83
2018-08-23T03:42:23.545Z,38.70
2018-08-23T03:44:52.756Z,38.40
2018-08-23T03:47:20.927Z,38.37
2018-08-23T03:49:49.127Z,38.70
2018-08-23T03:52:20.419Z,37.07
2018-08-23T03:54:54.720Z,39.20
2018-08-23T03:57:22.728Z,40.53
2018-08-23T03:59:51.908Z,40.10
2018-08-23T04:02:20.902Z,42.90
2018-08-23T04:04:50.220Z,40.43
2018-08-23T04:07:18.541Z,43.33
2018-08-23T04:09:46.521Z,43.73
2018-08-23T04:12:14.580Z,45.40
2018-08-23T04:14:42.777Z,44.87
2018-08-23T04:17:11.199Z,46.10
2018-08-23T04:19:41.208Z,44.40
2018-08-23T04:22:09.464Z,44.87
2018-08-23T04:24:42.278Z,47.05
2018-08-23T04:27:10.987Z,47.53
2018-08-23T04:29:44.552Z,47.57
2018-08-23T04:32:12.512Z,45.83
2018-08-23T04:34:40.541Z,47.33
2018-08-23T04:37:08.548Z,45.50
2018-08-23T04:39:36.507Z,47.60
2018-08-23T04:42:04.799Z,46.03
2018-08-23T04:44:37.479Z,48.50
2018-08-23T04:47:06.177Z,48.20
2018-08-23T04:49:34.180Z,48.43
2018-08-23T04:52:02.360Z,46.50
2018-08-23T04:54:30.365Z,46.90
2018-08-23T04:56:58.332Z,48.77
2018-08-23T04:59:26.297Z,51.83
2018-08-23T05:01:54.273Z,48.57
2018-08-23T05:04:22.261Z,50.43
2018-08-23T05:06:50.270Z,53.40
2018-08-23T05:09:18.320Z,55.10
2018-08-23T05:11:46.300Z,55.77
2018-08-23T05:14:14.269Z,57.90
2018-08-23T05:16:42.268Z,65.03
2018-08-23T05:19:10.255Z,63.00
2018-08-23T05:21:38.600Z,62.80
2018-08-23T05:24:10.888Z,57.90
2018-08-23T05:26:38.872Z,57.80
2018-08-23T05:29:07.944Z,55.93
2018-08-23T05:31:36.135Z,52.73
2018-08-23T05:34:05.341Z,54.80
2018-08-23T05:36:33.450Z,53.70
2018-08-23T05:39:01.826Z,53.73
2018-08-23T05:41:29.868Z,52.57
2018-08-23T05:44:08.941Z,53.70
2018-08-23T05:46:37.729Z,53.60
2018-08-23T05:49:06.219Z,52.40
2018-08-23T05:51:37.744Z,50.07
2018-08-23T05:54:06.124Z,51.73
2018-08-23T05:56:34.233Z,50.40
2018-08-23T05:59:07.817Z,49.87
2018-08-23T06:01:35.856Z,50.07
2018-08-23T06:04:03.884Z,48.70
2018-08-23T06:06:31.910Z,49.87
2018-08-23T06:09:04.062Z,50.23
2018-08-23T06:11:32.024Z,51.80
2018-08-23T06:14:00.095Z,50.00
2018-08-23T06:16:28.047Z,50.63
2018-08-23T06:18:56.018Z,51.53
2018-08-23T06:21:23.987Z,49.50
2018-08-23T06:23:51.975Z,50.00
2018-08-23T06:26:20.659Z,50.47
2018-08-23T06:28:48.616Z,50.27
2018-08-23T06:31:16.555Z,49.40
2018-08-23T06:33:49.940Z,50.90
2018-08-23T06:36:17.796Z,48.33
2018-08-23T06:38:51.419Z,47.58
2018-08-23T06:41:19.276Z,50.27
2018-08-23T06:43:47.285Z,51.00
2018-08-23T06:46:15.264Z,49.20
2018-08-23T06:48:43.267Z,50.40
2018-08-23T06:51:11.246Z,48.10
2018-08-23T06:53:49.228Z,49.27
2018-08-23T06:56:18.780Z,49.57
2018-08-23T06:58:46.859Z,48.63
2018-08-23T07:01:31.888Z,47.30
2018-08-23T07:04:04.729Z,45.13
2018-08-23T07:06:33.844Z,47.07
2018-08-23T07:09:02.332Z,46.97
2018-08-23T07:11:30.318Z,47.70
2018-08-23T07:14:03.719Z,46.63
2018-08-23T07:16:31.744Z,46.27
2018-08-23T07:19:02.430Z,44.83
2018-08-23T07:21:30.579Z,43.10
2018-08-23T07:23:58.723Z,42.73
2018-08-23T07:26:26.746Z,46.73
2018-08-23T07:28:54.756Z,46.08
2018-08-23T07:31:22.787Z,45.47
2018-08-23T07:33:51.986Z,46.57
2018-08-23T07:36:25.584Z,45.90
2018-08-23T07:38:53.684Z,45.27
2018-08-23T07:41:21.636Z,44.23
2018-08-23T07:43:49.635Z,42.73
2018-08-23T07:46:17.613Z,44.80
2018-08-23T07:48:45.719Z,42.77
2018-08-23T07:51:19.175Z,42.70
2018-08-23T07:53:47.180Z,43.87
2018-08-23T07:56:21.987Z,44.93
2018-08-23T07:58:52.011Z,44.17
2018-08-23T08:01:24.212Z,44.90
2018-08-23T08:03:52.228Z,45.53
2018-08-23T08:06:23.203Z,44.63
2018-08-23T08:08:51.357Z,42.23
2018-08-23T08:11:19.412Z,44.50
2018-08-23T08:13:51.921Z,43.33
2018-08-23T08:16:19.860Z,43.77
2018-08-23T08:18:47.812Z,44.93
2018-08-23T08:21:17.959Z,45.70
2018-08-23T08:23:56.466Z,43.97
2018-08-23T08:26:26.252Z,44.57
2018-08-23T08:28:54.270Z,40.80
2018-08-23T08:31:22.346Z,41.40
2018-08-23T08:33:50.357Z,42.87
2018-08-23T08:36:18.321Z,40.97
2018-08-23T08:38:46.367Z,41.67
2018-08-23T08:41:14.359Z,39.73
2018-08-23T08:43:43.283Z,40.93
2018-08-23T08:46:12.008Z,37.27
2018-08-23T08:48:39.976Z,40.40
2018-08-23T08:51:20.610Z,41.37
2018-08-23T08:53:48.595Z,39.70
2018-08-23T08:56:22.319Z,39.23
2018-08-23T08:58:50.829Z,37.80
2018-08-23T09:01:19.129Z,41.33
2018-08-23T09:03:47.281Z,39.27
2018-08-23T09:06:21.211Z,40.70
2018-08-23T09:08:49.489Z,37.40
2018-08-23T09:11:20.761Z,40.60
2018-08-23T09:13:49.152Z,43.10
2018-08-23T09:16:19.084Z,37.73
2018-08-23T09:18:56.301Z,36.90
2018-08-23T09:21:24.349Z,38.80
2018-08-23T09:23:52.455Z,37.17
2018-08-23T09:26:22.878Z,35.77
2018-08-23T09:28:50.922Z,38.53
2018-08-23T09:31:18.911Z,35.83
2018-08-23T09:33:46.921Z,34.27
2018-08-23T09:36:14.946Z,38.90
2018-08-23T09:38:42.919Z,37.77
2018-08-23T09:41:10.892Z,38.33
2018-08-23T09:43:39.042Z,36.87
2018-08-23T09:46:07.309Z,41.60
2018-08-23T09:48:36.077Z,40.03
2018-08-23T09:51:10.836Z,33.80
2018-08-23T09:53:39.000Z,39.60
2018-08-23T09:56:07.651Z,41.10
2018-08-23T09:58:40.743Z,37.87
2018-08-23T10:01:14.248Z,37.60
2018-08-23T10:03:48.450Z,39.30
2018-08-23T10:06:21.536Z,38.63
2018-08-23T10:08:55.844Z,40.60
2018-08-23T10:11:29.448Z,34.90
2018-08-23T10:14:02.968Z,36.90
2018-08-23T10:16:36.408Z,37.27
2018-08-23T10:19:09.696Z,38.00
2018-08-23T10:21:43.300Z,33.30
2018-08-23T10:24:17.348Z,36.03
2018-08-23T10:26:45.616Z,36.63
2018-08-23T10:29:13.580Z,38.00
2018-08-23T10:31:41.539Z,39.63
2018-08-23T10:34:09.507Z,36.83
2018-08-23T10:36:37.500Z,38.67
2018-08-23T10:39:08.621Z,38.70
2018-08-23T10:41:36.664Z,37.40
2018-08-23T10:44:04.729Z,35.23
2018-08-23T10:46:38.198Z,34.97
2018-08-23T10:49:06.344Z,37.63
2018-08-23T10:51:34.347Z,35.77
2018-08-23T10:54:02.421Z,36.20
2018-08-23T10:56:30.483Z,34.07
2018-08-23T10:58:58.511Z,37.03
2018-08-23T11:01:26.500Z,37.30
2018-08-23T11:03:54.492Z,36.03
2018-08-23T11:06:22.448Z,36.57
2018-08-23T11:08:55.845Z,36.93
2018-08-23T11:11:29.275Z,35.17
2018-08-23T11:13:57.282Z,34.00
2018-08-23T11:16:30.929Z,34.53
2018-08-23T11:19:04.440Z,45.03
2018-08-23T11:21:32.661Z,33.60
2018-08-23T11:24:00.736Z,31.53
2018-08-23T11:26:28.900Z,29.97
2018-08-23T11:28:56.870Z,29.20
2018-08-23T11:31:31.132Z,28.97
2018-08-23T11:33:59.623Z,28.23
2018-08-23T11:36:27.623Z,28.77
2018-08-23T11:38:55.656Z,29.20
2018-08-23T11:41:23.647Z,28.50
2018-08-23T11:43:51.672Z,30.73
2018-08-23T11:46:26.321Z,27.37
2018-08-23T11:48:54.363Z,27.57
2018-08-23T11:51:22.276Z,29.10
2018-08-23T11:53:50.337Z,28.13
2018-08-23T11:56:18.268Z,25.13
2018-08-23T11:58:46.640Z,26.53
2018-08-23T12:01:15.889Z,24.37
2018-08-23T12:03:44.995Z,26.13
2018-08-23T12:06:14.151Z,24.10
2018-08-23T12:08:42.633Z,24.73
2018-08-23T12:11:10.876Z,25.50
2018-08-23T12:13:38.864Z,21.93
2018-08-23T12:16:07.778Z,22.83
2018-08-23T12:18:37.816Z,20.30
2018-08-23T12:21:06.293Z,18.55
2018-08-23T12:23:34.711Z,16.90
2018-08-23T12:26:02.792Z,18.40
2018-08-23T12:28:36.336Z,18.20
2018-08-23T12:31:04.334Z,16.93
2018-08-23T12:33:32.376Z,17.97
2018-08-23T12:36:00.448Z,16.87
2018-08-23T12:38:34.102Z,17.30
2018-08-23T12:41:07.740Z,15.10
2018-08-23T12:43:44.200Z,14.80
2018-08-23T12:46:12.207Z,15.30
2018-08-23T12:48:40.168Z,14.10
2018-08-23T12:51:08.304Z,11.60
2018-08-23T12:53:36.358Z,15.30
2018-08-23T12:56:04.338Z,12.90
2018-08-23T12:58:32.493Z,14.50
2018-08-23T13:01:00.530Z,16.00
2018-08-23T13:03:28.535Z,13.47
2018-08-23T13:05:56.469Z,14.70
2018-08-23T13:08:24.517Z,15.10
2018-08-23T13:10:52.418Z,13.80
2018-08-23T13:13:20.413Z,13.47
2018-08-23T13:15:48.384Z,14.40
2018-08-23T13:18:16.376Z,14.17
2018-08-23T13:20:44.376Z,13.03
2018-08-23T13:23:12.417Z,13.77
2018-08-23T13:25:45.832Z,16.00
2018-08-23T13:28:13.796Z,14.97
2018-08-23T13:30:41.804Z,16.40
2018-08-23T13:33:09.785Z,16.70
2018-08-23T13:35:37.736Z,19.37
2018-08-23T13:38:05.858Z,17.00
2018-08-23T13:40:33.941Z,14.83
2018-08-23T13:43:01.976Z,22.60
2018-08-23T13:45:30.460Z,20.70
2018-08-23T13:47:58.499Z,18.83
2018-08-23T13:50:26.447Z,17.60
2018-08-23T13:52:54.446Z,17.17
2018-08-23T13:55:22.412Z,17.43
2018-08-23T13:57:50.398Z,18.23
2018-08-23T14:00:24.495Z,16.73
2018-08-23T14:02:52.524Z,20.43
2018-08-23T14:05:20.539Z,20.53
2018-08-23T14:07:48.669Z,19.97
2018-08-23T14:10:16.589Z,21.00
2018-08-23T14:12:44.770Z,20.80
2018-08-23T14:15:18.262Z,21.20
2018-08-23T14:17:46.470Z,19.33
2018-08-23T14:20:14.429Z,19.60
2018-08-23T14:22:42.377Z,23.10
2018-08-23T14:25:10.368Z,21.40
2018-08-23T14:27:38.424Z,24.83
2018-08-23T14:30:06.564Z,23.27
2018-08-23T14:32:34.564Z,22.60
2018-08-23T14:35:02.648Z,22.20
2018-08-23T14:37:30.697Z,21.23
2018-08-23T14:39:58.866Z,23.17
2018-08-23T14:42:26.885Z,23.33
2018-08-23T14:44:54.990Z,20.10
2018-08-23T14:47:28.500Z,18.93
2018-08-23T14:49:56.500Z,19.70
2018-08-23T14:52:24.568Z,17.63
2018-08-23T14:54:52.530Z,19.10
2018-08-23T14:57:26.113Z,18.53
2018-08-23T14:59:54.103Z,19.07
2018-08-23T15:02:22.107Z,17.83
2018-08-23T15:04:50.095Z,16.67
2018-08-23T15:07:18.267Z,16.40
2018-08-23T15:09:47.289Z,13.90
2018-08-23T15:12:15.367Z,14.27
2018-08-23T15:14:43.350Z,16.47
2018-08-23T15:17:11.632Z,14.60
2018-08-23T15:19:39.912Z,13.87
2018-08-23T15:22:08.405Z,15.20
2018-08-23T15:24:36.369Z,13.00
2018-08-23T15:27:04.594Z,13.00
2018-08-23T15:29:32.490Z,13.60
2018-08-23T15:32:00.534Z,12.40
2018-08-23T15:34:28.503Z,13.80
2018-08-23T15:36:56.504Z,13.00
2018-08-23T15:39:24.752Z,13.60
2018-08-23T15:41:52.758Z,14.33
2018-08-23T15:44:21.068Z,14.20
2018-08-23T15:46:49.505Z,14.50
2018-08-23T15:49:17.866Z,12.83
2018-08-23T15:51:46.048Z,12.83
2018-08-23T15:54:18.142Z,13.93
2018-08-23T15:56:46.119Z,14.27
2018-08-23T15:59:14.303Z,13.70
2018-08-23T16:01:42.287Z,15.67
2018-08-23T16:04:10.644Z,13.63
2018-08-23T16:06:38.608Z,14.43
2018-08-23T16:09:08.898Z,14.40
2018-08-23T16:11:37.179Z,14.77
2018-08-23T16:14:05.516Z,15.77
2018-08-23T16:16:38.911Z,15.37
2018-08-23T16:19:12.333Z,15.37
2018-08-23T16:21:41.363Z,15.97
2018-08-23T16:24:09.344Z,13.30
2018-08-23T16:26:42.797Z,14.87
2018-08-23T16:29:10.761Z,15.70
2018-08-23T16:31:38.708Z,14.70
2018-08-23T16:34:06.701Z,16.27
2018-08-23T16:36:34.671Z,15.20
2018-08-23T16:39:02.693Z,15.60
2018-08-23T16:41:30.714Z,15.27
2018-08-23T16:43:58.920Z,15.33
2018-08-23T16:46:26.880Z,15.43
2018-08-23T16:48:54.968Z,16.47
2018-08-23T16:51:22.952Z,15.30
2018-08-23T16:53:50.972Z,15.90
2018-08-23T16:56:19.050Z,15.53
2018-08-23T16:58:47.008Z,15.07
2018-08-23T17:01:14.975Z,16.03
2018-08-23T17:03:44.611Z,16.52
2018-08-23T17:06:12.568Z,15.73
2018-08-23T17:08:40.617Z,17.20
2018-08-23T17:11:08.710Z,16.87
2018-08-23T17:13:37.069Z,16.50
2018-08-23T17:16:11.544Z,17.87
2018-08-23T17:18:39.837Z,16.40
2018-08-23T17:21:07.879Z,17.10
2018-08-23T17:23:35.827Z,16.57
2018-08-23T17:26:04.053Z,17.90
2018-08-23T17:28:32.193Z,17.10
2018-08-23T17:31:00.328Z,17.40
2018-08-23T17:33:28.715Z,17.90
2018-08-23T17:35:56.775Z,17.37
2018-08-23T17:38:25.209Z,17.10
2018-08-23T17:40:53.167Z,17.63
2018-08-23T17:43:21.204Z,18.40
2018-08-23T17:45:50.749Z,16.90
2018-08-23T17:48:20.001Z,15.13
2018-08-23T17:50:48.024Z,16.07
2018-08-23T17:53:16.050Z,15.83
2018-08-23T17:55:44.058Z,16.60
2018-08-23T17:58:11.955Z,15.63
2018-08-23T18:00:40.168Z,16.33
2018-08-23T18:03:08.562Z,16.27
2018-08-23T18:05:36.544Z,15.77
2018-08-23T18:08:04.633Z,16.17
2018-08-23T18:10:32.659Z,15.77
2018-08-23T18:13:00.725Z,16.73
2018-08-23T18:15:34.192Z,16.40
2018-08-23T18:18:02.655Z,16.20
2018-08-23T18:20:30.723Z,14.90
2018-08-23T18:22:58.642Z,24.27
2018-08-23T18:25:26.743Z,16.60
2018-08-23T18:27:54.713Z,16.00
2018-08-23T18:30:22.684Z,15.33
2018-08-23T18:32:50.657Z,15.67
2018-08-23T18:35:18.648Z,15.50
2018-08-23T18:37:46.638Z,14.70
2018-08-23T18:40:14.583Z,15.53
2018-08-23T18:42:42.583Z,15.30
2018-08-23T18:45:10.557Z,14.77
2018-08-23T18:47:38.592Z,15.03
2018-08-23T18:50:06.590Z,15.40
2018-08-23T18:52:34.560Z,14.97
2018-08-23T18:55:02.537Z,15.10
2018-08-23T18:57:30.570Z,14.50
2018-08-23T18:59:58.659Z,14.57
2018-08-23T19:02:26.539Z,14.40
2018-08-23T19:04:55.039Z,13.70
2018-08-23T19:07:28.628Z,13.87
2018-08-23T19:09:58.641Z,13.90
2018-08-23T19:12:26.674Z,13.03
2018-08-23T19:14:54.704Z,13.83
2018-08-23T19:17:28.201Z,13.70
2018-08-23T19:19:56.553Z,14.30
2018-08-23T19:22:24.536Z,13.57
2018-08-23T19:24:52.519Z,14.10
2018-08-23T19:27:21.190Z,14.20
2018-08-23T19:29:49.617Z,13.97
2018-08-23T19:32:17.607Z,14.50
2018-08-23T19:34:46.628Z,13.27
2018-08-23T19:37:14.596Z,13.47
2018-08-23T19:39:42.553Z,13.70
2018-08-23T19:42:10.505Z,13.30
2018-08-23T19:44:44.000Z,14.50
2018-08-23T19:47:17.608Z,13.33
2018-08-23T19:49:51.088Z,12.77
2018-08-23T19:52:19.360Z,13.00
2018-08-23T19:54:47.378Z,12.57
2018-08-23T19:57:15.356Z,12.13
2018-08-23T19:59:43.304Z,11.07
2018-08-23T20:02:11.573Z,12.20
2018-08-23T20:04:40.183Z,12.77
2018-08-23T20:07:08.124Z,12.93
2018-08-23T20:09:36.168Z,12.03
2018-08-23T20:12:04.356Z,13.27
2018-08-23T20:14:32.364Z,15.00
2018-08-23T20:17:00.435Z,15.47
2018-08-23T20:19:28.693Z,15.20
2018-08-23T20:21:56.975Z,15.20
2018-08-23T20:24:25.009Z,16.67
2018-08-23T20:26:53.001Z,16.67
2018-08-23T20:29:21.349Z,16.63
2018-08-23T20:31:49.317Z,16.13
2018-08-23T20:34:17.426Z,17.03
2018-08-23T20:36:45.397Z,17.65
2018-08-23T20:39:14.434Z,17.90
2018-08-23T20:41:44.712Z,16.80
2018-08-23T20:44:12.705Z,18.93
2018-08-23T20:46:41.108Z,18.13
2018-08-23T20:49:09.500Z,18.00
2018-08-23T20:51:37.960Z,18.63
2018-08-23T20:54:07.726Z,19.00
2018-08-23T20:56:35.703Z,19.00
2018-08-23T20:59:03.722Z,18.77
2018-08-23T21:01:31.708Z,18.60
2018-08-23T21:03:59.804Z,19.30
2018-08-23T21:06:27.790Z,19.07
2018-08-23T21:08:55.809Z,18.00
2018-08-23T21:11:23.871Z,18.40
2018-08-23T21:13:52.724Z,19.87
2018-08-23T21:16:20.773Z,28.13
2018-08-23T21:18:48.805Z,27.63
2018-08-23T21:21:16.877Z,19.70
2018-08-23T21:23:44.842Z,18.30
2018-08-23T21:26:12.824Z,20.40
2018-08-23T21:28:40.826Z,19.90
2018-08-23T21:31:08.809Z,19.70
2018-08-23T21:33:36.791Z,19.00
2018-08-23T21:36:04.858Z,19.00
2018-08-23T21:38:33.039Z,19.57
2018-08-23T21:41:01.154Z,18.23
2018-08-23T21:43:29.211Z,20.43
2018-08-23T21:45:57.167Z,19.00
2018-08-23T21:48:25.119Z,18.70
2018-08-23T21:50:53.675Z,18.53
2018-08-23T21:53:21.746Z,19.83
2018-08-23T21:55:49.697Z,19.00
2018-08-23T21:58:17.685Z,19.77
2018-08-23T22:00:51.164Z,20.10
2018-08-23T22:03:19.215Z,19.53
2018-08-23T22:05:47.191Z,21.00
2018-08-23T22:08:15.164Z,19.47
2018-08-23T22:10:43.258Z,20.20
2018-08-23T22:13:11.331Z,19.77
2018-08-23T22:15:44.728Z,21.50
2018-08-23T22:18:12.719Z,21.03
2018-08-23T22:20:40.812Z,21.23
2018-08-23T22:23:08.785Z,20.77
2018-08-23T22:25:36.788Z,21.03
2018-08-23T22:28:05.052Z,20.67
2018-08-23T22:30:33.088Z,20.50
2018-08-23T22:33:01.067Z,20.27
2018-08-23T22:35:29.044Z,22.10
2018-08-23T22:37:57.032Z,20.90
2018-08-23T22:40:25.014Z,20.90
2018-08-23T22:42:52.963Z,22.30
2018-08-23T22:45:21.142Z,21.10
2018-08-23T22:47:49.208Z,21.00
2018-08-23T22:50:17.214Z,19.67
2018-08-23T22:52:45.259Z,19.87
2018-08-23T22:55:13.166Z,19.83
2018-08-23T22:57:41.247Z,19.53
2018-08-23T23:00:09.241Z,19.07
2018-08-23T23:02:37.305Z,19.53
2018-08-23T23:05:05.482Z,18.70
2018-08-23T23:07:33.491Z,19.30
2018-08-23T23:10:01.616Z,19.70
2018-08-23T23:12:29.907Z,19.70
2018-08-23T23:14:57.900Z,18.37
2018-08-23T23:17:25.924Z,18.57
2018-08-23T23:19:53.913Z,18.43
2018-08-23T23:22:22.925Z,19.00
2018-08-23T23:24:56.466Z,18.87
2018-08-23T23:27:25.343Z,19.97
2018-08-23T23:29:53.494Z,20.13
2018-08-23T23:32:21.473Z,18.63
2018-08-23T23:34:49.455Z,19.03
2018-08-23T23:37:17.452Z,19.70
2018-08-23T23:39:45.500Z,18.43
2018-08-23T23:42:13.472Z,18.10
2018-08-23T23:44:41.495Z,18.27
2018-08-23T23:47:09.423Z,18.70
2018-08-23T23:49:37.375Z,18.73
2018-08-23T23:52:05.368Z,16.97
2018-08-23T23:54:33.396Z,17.67
2018-08-23T23:57:01.412Z,16.73
2018-08-23T23:59:29.470Z,16.80
